Airfield :
LOGIN :

Register | Disclaimer

   EN    FR    IT 

 










Legend :    VFR   Marginal VFR   IFR   Intensive IFR   Very Intensive IFR
Visi :
Ceiling :
>= 8 km
>= 3000ft
5 to 8 km
1000 to 3000 ft
1500m to 5 km
500 to 1000 ft
800 to 1500m
200 to 500 ft
< 800m
< 200 ft
Symbols :   Thunderstorms  Fog  Heavy snow  Heavy precipitations  Wind > 20 kt
SIGMETs :     Misc.  Thunderstorms  Icing  Turbulence  Mountain Waves  Volcanic Ashes






- Airport Elevation : 909 ft
- IATA code : KSF


EDVK - Kassel Calden

CURRENT METAR :
  • 070950Z 28014KT 9999 -RA FEW018 BKN031 05/01 Q1012

EXPIRED METARs :
  • 070920Z 28015KT 9000 -RA FEW021 SCT031 OVC049 04/02 Q1011
  • 070850Z 28010KT 9999 SCT023 BKN035 05/00 Q1011
  • 070820Z 31011KT 9999 SCT018 BKN024 05/00 Q1010
  • 070750Z 31011KT 9999 SCT013 BKN019 06/02 Q1010
  • 070720Z 30011KT 9999 BKN013 BKN045 05/02 Q1009

TAF TAF EDVK
Valid from the 07 at 09:00 until the 07 at 18:00 UTC


070800Z 0709/0718 31013KT 9999 FEW015 BKN025
TEMPO 0709/0715 32015G25KT SHRA BKN014CB
PROB30
TEMPO 0709/0712 -TSRA
BECMG 0716/0718 29006KT



MET'MAP, your aeronautical weather chart ! - Copyright ORBIFLY December 2007 - Disclaimer

ORBIFLY MET'MAP TEAM :

Programming & Development : Alexandra Zaïnal
Concept & original design : Baudouin d'Aumeries
Assistance for programming : Marc-Olivier Méhu
Technical & hardware support : Manuel Goepfert

Contact : metmap@orbifly.com




SOURCES & CREDITS :

   NOAA